sensor_id;sensor_type;location;lat;lon;timestamp;P1;durP1;ratioP1;P2;durP2;ratioP2
36321;SDS011;23564;48.290;11.460;2022-07-10T00:01:05;4.13;;;2.83;;
36321;SDS011;23564;48.290;11.460;2022-07-10T00:03:30;4.53;;;2.78;;
36321;SDS011;23564;48.290;11.460;2022-07-10T00:05:56;4.25;;;2.45;;
36321;SDS011;23564;48.290;11.460;2022-07-10T00:08:21;4.22;;;2.88;;
36321;SDS011;23564;48.290;11.460;2022-07-10T00:10:47;3.28;;;2.85;;
36321;SDS011;23564;48.290;11.460;2022-07-10T00:13:13;4.35;;;2.95;;
36321;SDS011;23564;48.290;11.460;2022-07-10T00:15:38;5.13;;;2.78;;
36321;SDS011;23564;48.290;11.460;2022-07-10T00:18:04;5.47;;;2.70;;
36321;SDS011;23564;48.290;11.460;2022-07-10T00:20:30;7.80;;;3.20;;
36321;SDS011;23564;48.290;11.460;2022-07-10T00:22:55;4.10;;;2.35;;
36321;SDS011;23564;48.290;11.460;2022-07-10T00:25:21;8.25;;;3.10;;
36321;SDS011;23564;48.290;11.460;2022-07-10T00:27:47;3.45;;;2.58;;
36321;SDS011;23564;48.290;11.460;2022-07-10T00:30:12;5.70;;;2.67;;
36321;SDS011;23564;48.290;11.460;2022-07-10T00:32:39;4.18;;;2.60;;
36321;SDS011;23564;48.290;11.460;2022-07-10T00:35:05;3.67;;;2.13;;
36321;SDS011;23564;48.290;11.460;2022-07-10T00:37:31;5.60;;;2.30;;
36321;SDS011;23564;48.290;11.460;2022-07-10T00:39:57;5.15;;;2.83;;
36321;SDS011;23564;48.290;11.460;2022-07-10T00:42:25;4.78;;;3.03;;
36321;SDS011;23564;48.290;11.460;2022-07-10T00:44:51;4.50;;;2.90;;
36321;SDS011;23564;48.290;11.460;2022-07-10T00:47:17;3.83;;;2.83;;
36321;SDS011;23564;48.290;11.460;2022-07-10T00:49:44;3.85;;;3.05;;
36321;SDS011;23564;48.290;11.460;2022-07-10T00:52:13;6.65;;;2.90;;
36321;SDS011;23564;48.290;11.460;2022-07-10T00:54:41;6.53;;;2.85;;
36321;SDS011;23564;48.290;11.460;2022-07-10T00:57:08;7.20;;;3.80;;
36321;SDS011;23564;48.290;11.460;2022-07-10T00:59:34;5.13;;;3.10;;
36321;SDS011;23564;48.290;11.460;2022-07-10T01:02:01;7.97;;;3.92;;
36321;SDS011;23564;48.290;11.460;2022-07-10T01:04:27;5.50;;;3.50;;
36321;SDS011;23564;48.290;11.460;2022-07-10T01:06:54;4.95;;;3.10;;
36321;SDS011;23564;48.290;11.460;2022-07-10T01:09:19;5.82;;;3.50;;
36321;SDS011;23564;48.290;11.460;2022-07-10T01:11:45;6.30;;;3.22;;
36321;SDS011;23564;48.290;11.460;2022-07-10T01:14:11;3.88;;;3.33;;
36321;SDS011;23564;48.290;11.460;2022-07-10T01:16:37;4.95;;;2.95;;
36321;SDS011;23564;48.290;11.460;2022-07-10T01:19:02;6.32;;;3.35;;
36321;SDS011;23564;48.290;11.460;2022-07-10T01:21:29;4.30;;;3.50;;
36321;SDS011;23564;48.290;11.460;2022-07-10T01:23:56;6.57;;;2.97;;
36321;SDS011;23564;48.290;11.460;2022-07-10T01:26:23;6.07;;;3.47;;
36321;SDS011;23564;48.290;11.460;2022-07-10T01:28:53;4.40;;;3.35;;
36321;SDS011;23564;48.290;11.460;2022-07-10T01:31:19;6.60;;;3.35;;
36321;SDS011;23564;48.290;11.460;2022-07-10T01:33:50;4.15;;;3.25;;
36321;SDS011;23564;48.290;11.460;2022-07-10T01:36:16;4.78;;;2.97;;
36321;SDS011;23564;48.290;11.460;2022-07-10T01:38:42;4.70;;;3.50;;
36321;SDS011;23564;48.290;11.460;2022-07-10T01:41:08;3.30;;;3.00;;
36321;SDS011;23564;48.290;11.460;2022-07-10T01:43:35;4.80;;;3.33;;
36321;SDS011;23564;48.290;11.460;2022-07-10T01:46:01;3.85;;;3.30;;
36321;SDS011;23564;48.290;11.460;2022-07-10T01:48:30;4.65;;;3.15;;
36321;SDS011;23564;48.290;11.460;2022-07-10T01:50:56;4.85;;;3.47;;
36321;SDS011;23564;48.290;11.460;2022-07-10T01:53:22;5.45;;;3.17;;
36321;SDS011;23564;48.290;11.460;2022-07-10T01:55:48;5.18;;;3.20;;
36321;SDS011;23564;48.290;11.460;2022-07-10T01:58:13;5.65;;;3.75;;
36321;SDS011;23564;48.290;11.460;2022-07-10T02:00:39;6.45;;;3.33;;
36321;SDS011;23564;48.290;11.460;2022-07-10T02:03:05;4.00;;;3.35;;
36321;SDS011;23564;48.290;11.460;2022-07-10T02:05:49;5.35;;;3.40;;
36321;SDS011;23564;48.290;11.460;2022-07-10T02:08:15;10.23;;;3.97;;
36321;SDS011;23564;48.290;11.460;2022-07-10T02:10:40;5.55;;;3.72;;
36321;SDS011;23564;48.290;11.460;2022-07-10T02:13:06;4.72;;;3.55;;
36321;SDS011;23564;48.290;11.460;2022-07-10T02:15:31;4.82;;;3.63;;
36321;SDS011;23564;48.290;11.460;2022-07-10T02:17:57;9.02;;;3.50;;
36321;SDS011;23564;48.290;11.460;2022-07-10T02:20:23;5.82;;;3.60;;
36321;SDS011;23564;48.290;11.460;2022-07-10T02:22:48;5.88;;;4.05;;
36321;SDS011;23564;48.290;11.460;2022-07-10T02:25:14;5.32;;;3.85;;
36321;SDS011;23564;48.290;11.460;2022-07-10T02:27:39;9.43;;;4.22;;
36321;SDS011;23564;48.290;11.460;2022-07-10T02:30:05;9.48;;;4.72;;
36321;SDS011;23564;48.290;11.460;2022-07-10T02:32:31;4.68;;;4.20;;
36321;SDS011;23564;48.290;11.460;2022-07-10T02:34:57;8.65;;;4.55;;
36321;SDS011;23564;48.290;11.460;2022-07-10T02:37:22;7.28;;;4.63;;
36321;SDS011;23564;48.290;11.460;2022-07-10T02:39:48;7.15;;;4.93;;
36321;SDS011;23564;48.290;11.460;2022-07-10T02:42:13;7.45;;;4.10;;
36321;SDS011;23564;48.290;11.460;2022-07-10T02:44:39;5.95;;;4.47;;
36321;SDS011;23564;48.290;11.460;2022-07-10T02:47:05;7.63;;;4.53;;
36321;SDS011;23564;48.290;11.460;2022-07-10T02:49:30;6.22;;;4.18;;
36321;SDS011;23564;48.290;11.460;2022-07-10T02:51:56;8.18;;;4.80;;
36321;SDS011;23564;48.290;11.460;2022-07-10T02:54:23;9.15;;;4.82;;
36321;SDS011;23564;48.290;11.460;2022-07-10T02:56:48;8.13;;;5.00;;
36321;SDS011;23564;48.290;11.460;2022-07-10T02:59:14;5.28;;;4.40;;
36321;SDS011;23564;48.290;11.460;2022-07-10T03:01:39;7.15;;;4.95;;
36321;SDS011;23564;48.290;11.460;2022-07-10T03:04:05;7.22;;;4.90;;
36321;SDS011;23564;48.290;11.460;2022-07-10T03:06:32;5.47;;;4.35;;
36321;SDS011;23564;48.290;11.460;2022-07-10T03:08:57;7.47;;;4.40;;
36321;SDS011;23564;48.290;11.460;2022-07-10T03:11:23;6.30;;;4.32;;
36321;SDS011;23564;48.290;11.460;2022-07-10T03:13:49;7.75;;;4.65;;
36321;SDS011;23564;48.290;11.460;2022-07-10T03:16:15;7.88;;;4.60;;
36321;SDS011;23564;48.290;11.460;2022-07-10T03:18:40;6.60;;;4.78;;
36321;SDS011;23564;48.290;11.460;2022-07-10T03:21:06;9.15;;;4.85;;
36321;SDS011;23564;48.290;11.460;2022-07-10T03:23:31;8.35;;;4.68;;
36321;SDS011;23564;48.290;11.460;2022-07-10T03:25:57;6.88;;;4.28;;
36321;SDS011;23564;48.290;11.460;2022-07-10T03:28:22;9.57;;;4.82;;
36321;SDS011;23564;48.290;11.460;2022-07-10T03:30:48;7.88;;;4.60;;
36321;SDS011;23564;48.290;11.460;2022-07-10T03:33:14;8.30;;;4.93;;
36321;SDS011;23564;48.290;11.460;2022-07-10T03:35:39;8.52;;;4.47;;
36321;SDS011;23564;48.290;11.460;2022-07-10T03:38:05;7.63;;;4.35;;
36321;SDS011;23564;48.290;11.460;2022-07-10T03:40:30;14.00;;;5.15;;
36321;SDS011;23564;48.290;11.460;2022-07-10T03:42:56;6.43;;;4.57;;
36321;SDS011;23564;48.290;11.460;2022-07-10T03:45:21;7.93;;;5.93;;
36321;SDS011;23564;48.290;11.460;2022-07-10T03:47:47;7.57;;;4.63;;
36321;SDS011;23564;48.290;11.460;2022-07-10T03:50:13;8.95;;;4.43;;
36321;SDS011;23564;48.290;11.460;2022-07-10T03:52:38;5.13;;;4.28;;
36321;SDS011;23564;48.290;11.460;2022-07-10T03:55:04;6.13;;;4.53;;
36321;SDS011;23564;48.290;11.460;2022-07-10T03:57:30;6.28;;;5.25;;
36321;SDS011;23564;48.290;11.460;2022-07-10T04:00:14;6.95;;;5.20;;
36321;SDS011;23564;48.290;11.460;2022-07-10T04:02:39;6.18;;;4.85;;
36321;SDS011;23564;48.290;11.460;2022-07-10T04:05:06;7.75;;;5.18;;
36321;SDS011;23564;48.290;11.460;2022-07-10T04:07:33;10.13;;;5.05;;
36321;SDS011;23564;48.290;11.460;2022-07-10T04:09:59;6.97;;;5.22;;
36321;SDS011;23564;48.290;11.460;2022-07-10T04:12:24;6.70;;;4.82;;
36321;SDS011;23564;48.290;11.460;2022-07-10T04:14:50;5.72;;;4.75;;
36321;SDS011;23564;48.290;11.460;2022-07-10T04:17:16;9.45;;;4.88;;
36321;SDS011;23564;48.290;11.460;2022-07-10T04:19:42;6.43;;;5.30;;
36321;SDS011;23564;48.290;11.460;2022-07-10T04:22:08;7.35;;;5.22;;
36321;SDS011;23564;48.290;11.460;2022-07-10T04:24:34;9.20;;;5.13;;
36321;SDS011;23564;48.290;11.460;2022-07-10T04:27:00;10.60;;;5.57;;
36321;SDS011;23564;48.290;11.460;2022-07-10T04:29:26;7.50;;;5.30;;
36321;SDS011;23564;48.290;11.460;2022-07-10T04:31:52;6.30;;;4.85;;
36321;SDS011;23564;48.290;11.460;2022-07-10T04:34:17;7.75;;;5.10;;
36321;SDS011;23564;48.290;11.460;2022-07-10T04:36:43;5.85;;;4.65;;
36321;SDS011;23564;48.290;11.460;2022-07-10T04:39:08;7.20;;;5.22;;
36321;SDS011;23564;48.290;11.460;2022-07-10T04:41:34;8.07;;;4.97;;
36321;SDS011;23564;48.290;11.460;2022-07-10T04:44:00;7.72;;;4.82;;
36321;SDS011;23564;48.290;11.460;2022-07-10T04:46:26;6.82;;;5.05;;
36321;SDS011;23564;48.290;11.460;2022-07-10T04:48:51;6.28;;;5.10;;
36321;SDS011;23564;48.290;11.460;2022-07-10T04:51:17;7.15;;;4.72;;
36321;SDS011;23564;48.290;11.460;2022-07-10T04:53:43;7.93;;;5.30;;
36321;SDS011;23564;48.290;11.460;2022-07-10T04:56:08;10.52;;;6.07;;
36321;SDS011;23564;48.290;11.460;2022-07-10T04:58:34;7.97;;;5.22;;
36321;SDS011;23564;48.290;11.460;2022-07-10T05:01:00;7.15;;;5.80;;
36321;SDS011;23564;48.290;11.460;2022-07-10T05:03:27;7.53;;;5.03;;
36321;SDS011;23564;48.290;11.460;2022-07-10T05:05:53;9.00;;;5.20;;
36321;SDS011;23564;48.290;11.460;2022-07-10T05:08:19;8.85;;;5.47;;
36321;SDS011;23564;48.290;11.460;2022-07-10T05:10:44;9.65;;;5.03;;
36321;SDS011;23564;48.290;11.460;2022-07-10T05:13:11;7.90;;;5.15;;
36321;SDS011;23564;48.290;11.460;2022-07-10T05:15:37;8.75;;;5.05;;
36321;SDS011;23564;48.290;11.460;2022-07-10T05:18:03;6.82;;;5.00;;
36321;SDS011;23564;48.290;11.460;2022-07-10T05:20:29;5.70;;;4.70;;
36321;SDS011;23564;48.290;11.460;2022-07-10T05:22:55;6.82;;;5.22;;
36321;SDS011;23564;48.290;11.460;2022-07-10T05:25:21;9.48;;;5.78;;
36321;SDS011;23564;48.290;11.460;2022-07-10T05:27:47;10.60;;;6.32;;
36321;SDS011;23564;48.290;11.460;2022-07-10T05:30:13;11.30;;;6.28;;
36321;SDS011;23564;48.290;11.460;2022-07-10T05:32:42;6.38;;;5.18;;
36321;SDS011;23564;48.290;11.460;2022-07-10T05:35:08;8.80;;;5.78;;
36321;SDS011;23564;48.290;11.460;2022-07-10T05:37:34;9.55;;;6.43;;
36321;SDS011;23564;48.290;11.460;2022-07-10T05:39:59;9.73;;;6.80;;
36321;SDS011;23564;48.290;11.460;2022-07-10T05:42:25;10.07;;;6.72;;
36321;SDS011;23564;48.290;11.460;2022-07-10T05:44:51;9.38;;;6.15;;
36321;SDS011;23564;48.290;11.460;2022-07-10T05:47:16;7.72;;;5.93;;
36321;SDS011;23564;48.290;11.460;2022-07-10T05:49:42;7.50;;;5.80;;
36321;SDS011;23564;48.290;11.460;2022-07-10T05:52:07;7.90;;;5.68;;
36321;SDS011;23564;48.290;11.460;2022-07-10T05:54:33;8.65;;;6.53;;
36321;SDS011;23564;48.290;11.460;2022-07-10T05:56:58;10.50;;;5.80;;
36321;SDS011;23564;48.290;11.460;2022-07-10T05:59:24;8.63;;;5.90;;
36321;SDS011;23564;48.290;11.460;2022-07-10T06:01:49;10.48;;;6.10;;
36321;SDS011;23564;48.290;11.460;2022-07-10T06:04:15;9.07;;;5.70;;
36321;SDS011;23564;48.290;11.460;2022-07-10T06:06:41;10.02;;;5.93;;
36321;SDS011;23564;48.290;11.460;2022-07-10T06:09:06;9.85;;;6.57;;
36321;SDS011;23564;48.290;11.460;2022-07-10T06:11:32;9.50;;;5.75;;
36321;SDS011;23564;48.290;11.460;2022-07-10T06:13:59;9.30;;;6.15;;
36321;SDS011;23564;48.290;11.460;2022-07-10T06:16:24;8.00;;;5.70;;
36321;SDS011;23564;48.290;11.460;2022-07-10T06:18:50;9.27;;;5.60;;
36321;SDS011;23564;48.290;11.460;2022-07-10T06:21:15;9.57;;;6.20;;
36321;SDS011;23564;48.290;11.460;2022-07-10T06:23:46;6.32;;;4.45;;
36321;SDS011;23564;48.290;11.460;2022-07-10T06:26:12;9.60;;;5.95;;
36321;SDS011;23564;48.290;11.460;2022-07-10T06:28:37;8.63;;;5.32;;
36321;SDS011;23564;48.290;11.460;2022-07-10T06:31:04;8.80;;;5.70;;
36321;SDS011;23564;48.290;11.460;2022-07-10T06:33:29;8.98;;;5.60;;
36321;SDS011;23564;48.290;11.460;2022-07-10T06:35:57;7.88;;;5.68;;
36321;SDS011;23564;48.290;11.460;2022-07-10T06:38:22;11.15;;;5.35;;
36321;SDS011;23564;48.290;11.460;2022-07-10T06:40:48;7.78;;;5.07;;
36321;SDS011;23564;48.290;11.460;2022-07-10T06:43:14;10.30;;;5.07;;
36321;SDS011;23564;48.290;11.460;2022-07-10T06:45:40;9.10;;;5.32;;
36321;SDS011;23564;48.290;11.460;2022-07-10T06:48:06;8.90;;;4.57;;
36321;SDS011;23564;48.290;11.460;2022-07-10T06:50:32;8.57;;;4.68;;
36321;SDS011;23564;48.290;11.460;2022-07-10T06:52:59;7.15;;;4.75;;
36321;SDS011;23564;48.290;11.460;2022-07-10T06:55:26;10.77;;;5.07;;
36321;SDS011;23564;48.290;11.460;2022-07-10T06:57:52;6.22;;;4.18;;
36321;SDS011;23564;48.290;11.460;2022-07-10T07:00:18;9.40;;;4.18;;
36321;SDS011;23564;48.290;11.460;2022-07-10T07:02:44;12.55;;;4.30;;
36321;SDS011;23564;48.290;11.460;2022-07-10T07:05:10;6.45;;;4.47;;
36321;SDS011;23564;48.290;11.460;2022-07-10T07:07:36;8.90;;;4.10;;
36321;SDS011;23564;48.290;11.460;2022-07-10T07:10:02;5.72;;;4.15;;
36321;SDS011;23564;48.290;11.460;2022-07-10T07:12:28;7.53;;;4.63;;
36321;SDS011;23564;48.290;11.460;2022-07-10T07:14:54;5.47;;;3.60;;
36321;SDS011;23564;48.290;11.460;2022-07-10T07:17:20;11.45;;;4.72;;
36321;SDS011;23564;48.290;11.460;2022-07-10T07:19:59;7.68;;;4.32;;
36321;SDS011;23564;48.290;11.460;2022-07-10T07:22:44;8.60;;;3.88;;
36321;SDS011;23564;48.290;11.460;2022-07-10T07:25:28;9.43;;;4.43;;
36321;SDS011;23564;48.290;11.460;2022-07-10T07:27:53;6.00;;;3.97;;
36321;SDS011;23564;48.290;11.460;2022-07-10T07:30:19;6.43;;;3.92;;
36321;SDS011;23564;48.290;11.460;2022-07-10T07:32:45;5.65;;;2.90;;
36321;SDS011;23564;48.290;11.460;2022-07-10T07:35:13;5.30;;;3.40;;
36321;SDS011;23564;48.290;11.460;2022-07-10T07:37:44;9.02;;;4.55;;
36321;SDS011;23564;48.290;11.460;2022-07-10T07:40:15;6.65;;;3.42;;
36321;SDS011;23564;48.290;11.460;2022-07-10T07:42:42;7.53;;;2.65;;
36321;SDS011;23564;48.290;11.460;2022-07-10T07:45:08;5.95;;;2.85;;
36321;SDS011;23564;48.290;11.460;2022-07-10T07:47:47;4.47;;;2.40;;
36321;SDS011;23564;48.290;11.460;2022-07-10T07:50:18;4.30;;;2.47;;
36321;SDS011;23564;48.290;11.460;2022-07-10T07:52:46;3.78;;;2.33;;
36321;SDS011;23564;48.290;11.460;2022-07-10T07:55:13;5.28;;;2.22;;
36321;SDS011;23564;48.290;11.460;2022-07-10T07:57:39;6.35;;;2.53;;
36321;SDS011;23564;48.290;11.460;2022-07-10T08:00:06;6.18;;;2.17;;
36321;SDS011;23564;48.290;11.460;2022-07-10T08:02:33;3.88;;;1.85;;
36321;SDS011;23564;48.290;11.460;2022-07-10T08:04:59;6.22;;;2.08;;
36321;SDS011;23564;48.290;11.460;2022-07-10T08:07:41;3.38;;;1.98;;
36321;SDS011;23564;48.290;11.460;2022-07-10T08:10:09;3.72;;;2.13;;
36321;SDS011;23564;48.290;11.460;2022-07-10T08:12:36;4.50;;;2.13;;
36321;SDS011;23564;48.290;11.460;2022-07-10T08:15:04;3.33;;;1.90;;
36321;SDS011;23564;48.290;11.460;2022-07-10T08:17:31;4.40;;;2.25;;
36321;SDS011;23564;48.290;11.460;2022-07-10T08:19:57;7.45;;;2.38;;
36321;SDS011;23564;48.290;11.460;2022-07-10T08:22:22;3.10;;;2.08;;
36321;SDS011;23564;48.290;11.460;2022-07-10T08:24:48;3.55;;;2.00;;
36321;SDS011;23564;48.290;11.460;2022-07-10T08:27:13;7.53;;;2.10;;
36321;SDS011;23564;48.290;11.460;2022-07-10T08:29:39;5.72;;;2.00;;
36321;SDS011;23564;48.290;11.460;2022-07-10T08:32:05;6.95;;;1.50;;
36321;SDS011;23564;48.290;11.460;2022-07-10T08:34:31;3.85;;;1.50;;
36321;SDS011;23564;48.290;11.460;2022-07-10T08:36:58;6.32;;;1.83;;
36321;SDS011;23564;48.290;11.460;2022-07-10T08:39:23;6.22;;;1.88;;
36321;SDS011;23564;48.290;11.460;2022-07-10T08:41:49;5.63;;;1.73;;
36321;SDS011;23564;48.290;11.460;2022-07-10T08:44:18;5.72;;;2.22;;
36321;SDS011;23564;48.290;11.460;2022-07-10T08:46:44;7.07;;;1.75;;
36321;SDS011;23564;48.290;11.460;2022-07-10T08:49:10;5.72;;;1.63;;
36321;SDS011;23564;48.290;11.460;2022-07-10T08:51:58;6.82;;;1.83;;
36321;SDS011;23564;48.290;11.460;2022-07-10T08:54:38;4.35;;;1.42;;
36321;SDS011;23564;48.290;11.460;2022-07-10T08:57:04;3.83;;;1.35;;
36321;SDS011;23564;48.290;11.460;2022-07-10T08:59:30;7.63;;;2.97;;
36321;SDS011;23564;48.290;11.460;2022-07-10T09:01:56;2.92;;;1.30;;
36321;SDS011;23564;48.290;11.460;2022-07-10T09:04:23;3.17;;;1.20;;
36321;SDS011;23564;48.290;11.460;2022-07-10T09:06:50;6.38;;;1.45;;
36321;SDS011;23564;48.290;11.460;2022-07-10T09:09:17;3.17;;;1.27;;
36321;SDS011;23564;48.290;11.460;2022-07-10T09:11:43;4.65;;;2.05;;
36321;SDS011;23564;48.290;11.460;2022-07-10T09:14:10;4.65;;;1.30;;
36321;SDS011;23564;48.290;11.460;2022-07-10T09:16:40;1.92;;;1.35;;
36321;SDS011;23564;48.290;11.460;2022-07-10T09:19:20;3.03;;;1.23;;
36321;SDS011;23564;48.290;11.460;2022-07-10T09:21:51;4.05;;;1.23;;
36321;SDS011;23564;48.290;11.460;2022-07-10T09:24:18;1.52;;;1.20;;
36321;SDS011;23564;48.290;11.460;2022-07-10T09:27:00;2.10;;;1.05;;
36321;SDS011;23564;48.290;11.460;2022-07-10T09:29:28;4.83;;;1.77;;
36321;SDS011;23564;48.290;11.460;2022-07-10T09:31:55;5.78;;;1.58;;
36321;SDS011;23564;48.290;11.460;2022-07-10T09:34:39;3.55;;;1.02;;
36321;SDS011;23564;48.290;11.460;2022-07-10T09:37:36;3.22;;;1.20;;
36321;SDS011;23564;48.290;11.460;2022-07-10T09:40:05;4.00;;;1.10;;
36321;SDS011;23564;48.290;11.460;2022-07-10T09:42:38;8.63;;;1.17;;
36321;SDS011;23564;48.290;11.460;2022-07-10T09:50:29;5.80;;;1.08;;
36321;SDS011;23564;48.290;11.460;2022-07-10T09:53:00;4.15;;;1.30;;
36321;SDS011;23564;48.290;11.460;2022-07-10T09:55:28;3.10;;;1.50;;
36321;SDS011;23564;48.290;11.460;2022-07-10T10:00:28;4.53;;;1.20;;
36321;SDS011;23564;48.290;11.460;2022-07-10T10:03:02;3.28;;;1.38;;
36321;SDS011;23564;48.290;11.460;2022-07-10T10:05:36;5.80;;;1.50;;
36321;SDS011;23564;48.290;11.460;2022-07-10T10:08:08;6.78;;;1.00;;
36321;SDS011;23564;48.290;11.460;2022-07-10T10:10:36;5.45;;;1.48;;
36321;SDS011;23564;48.290;11.460;2022-07-10T10:15:35;9.15;;;2.00;;
36321;SDS011;23564;48.290;11.460;2022-07-10T10:18:01;4.03;;;1.48;;
36321;SDS011;23564;48.290;11.460;2022-07-10T10:20:27;4.05;;;1.45;;
36321;SDS011;23564;48.290;11.460;2022-07-10T10:23:09;3.67;;;1.30;;
36321;SDS011;23564;48.290;11.460;2022-07-10T10:25:36;4.55;;;1.58;;
36321;SDS011;23564;48.290;11.460;2022-07-10T10:28:04;5.15;;;0.90;;
36321;SDS011;23564;48.290;11.460;2022-07-10T10:30:31;4.30;;;1.17;;
36321;SDS011;23564;48.290;11.460;2022-07-10T10:32:58;5.18;;;1.00;;
36321;SDS011;23564;48.290;11.460;2022-07-10T10:35:41;4.45;;;1.13;;
36321;SDS011;23564;48.290;11.460;2022-07-10T10:38:11;3.70;;;1.30;;
36321;SDS011;23564;48.290;11.460;2022-07-10T10:40:37;1.98;;;1.25;;
36321;SDS011;23564;48.290;11.460;2022-07-10T10:46:01;5.13;;;1.05;;
36321;SDS011;23564;48.290;11.460;2022-07-10T10:49:04;2.90;;;1.13;;
36321;SDS011;23564;48.290;11.460;2022-07-10T10:54:24;2.67;;;1.10;;
36321;SDS011;23564;48.290;11.460;2022-07-10T10:59:54;1.50;;;1.00;;
36321;SDS011;23564;48.290;11.460;2022-07-10T11:02:28;2.60;;;0.90;;
36321;SDS011;23564;48.290;11.460;2022-07-10T11:13:01;2.60;;;0.82;;
36321;SDS011;23564;48.290;11.460;2022-07-10T11:15:30;4.03;;;1.98;;
36321;SDS011;23564;48.290;11.460;2022-07-10T11:18:03;1.67;;;0.90;;
36321;SDS011;23564;48.290;11.460;2022-07-10T11:20:38;2.60;;;1.15;;
36321;SDS011;23564;48.290;11.460;2022-07-10T11:26:12;1.55;;;0.73;;
36321;SDS011;23564;48.290;11.460;2022-07-10T11:28:50;3.22;;;0.95;;
36321;SDS011;23564;48.290;11.460;2022-07-10T11:31:21;4.45;;;1.42;;
36321;SDS011;23564;48.290;11.460;2022-07-10T11:33:48;1.63;;;0.75;;
36321;SDS011;23564;48.290;11.460;2022-07-10T11:36:34;1.55;;;0.95;;
36321;SDS011;23564;48.290;11.460;2022-07-10T11:39:02;3.05;;;0.80;;
36321;SDS011;23564;48.290;11.460;2022-07-10T11:41:32;1.77;;;0.70;;
36321;SDS011;23564;48.290;11.460;2022-07-10T11:43:59;2.35;;;0.90;;
36321;SDS011;23564;48.290;11.460;2022-07-10T11:46:26;3.55;;;0.80;;
36321;SDS011;23564;48.290;11.460;2022-07-10T11:48:56;1.83;;;0.82;;
36321;SDS011;23564;48.290;11.460;2022-07-10T11:51:24;3.70;;;0.93;;
36321;SDS011;23564;48.290;11.460;2022-07-10T11:54:05;4.50;;;0.88;;
36321;SDS011;23564;48.290;11.460;2022-07-10T11:56:38;3.35;;;0.70;;
36321;SDS011;23564;48.290;11.460;2022-07-10T11:59:14;1.80;;;0.65;;
36321;SDS011;23564;48.290;11.460;2022-07-10T12:01:45;2.22;;;0.90;;
36321;SDS011;23564;48.290;11.460;2022-07-10T12:04:12;4.53;;;1.05;;
36321;SDS011;23564;48.290;11.460;2022-07-10T12:06:40;6.53;;;1.40;;
36321;SDS011;23564;48.290;11.460;2022-07-10T12:09:09;3.42;;;0.90;;
36321;SDS011;23564;48.290;11.460;2022-07-10T12:11:37;4.95;;;1.02;;
36321;SDS011;23564;48.290;11.460;2022-07-10T12:14:19;1.35;;;0.65;;
36321;SDS011;23564;48.290;11.460;2022-07-10T12:16:47;3.00;;;0.77;;
36321;SDS011;23564;48.290;11.460;2022-07-10T12:19:18;5.03;;;1.02;;
36321;SDS011;23564;48.290;11.460;2022-07-10T12:21:48;3.97;;;0.80;;
36321;SDS011;23564;48.290;11.460;2022-07-10T12:24:18;3.28;;;0.80;;
36321;SDS011;23564;48.290;11.460;2022-07-10T12:26:48;1.92;;;0.82;;
36321;SDS011;23564;48.290;11.460;2022-07-10T12:31:43;4.15;;;0.80;;
36321;SDS011;23564;48.290;11.460;2022-07-10T12:34:10;3.70;;;0.90;;
36321;SDS011;23564;48.290;11.460;2022-07-10T12:39:09;2.17;;;0.80;;
36321;SDS011;23564;48.290;11.460;2022-07-10T12:41:52;1.30;;;0.70;;
36321;SDS011;23564;48.290;11.460;2022-07-10T12:44:44;3.40;;;0.77;;
36321;SDS011;23564;48.290;11.460;2022-07-10T12:47:14;3.05;;;0.70;;
36321;SDS011;23564;48.290;11.460;2022-07-10T12:49:50;2.95;;;0.80;;
36321;SDS011;23564;48.290;11.460;2022-07-10T12:52:28;1.58;;;0.70;;
36321;SDS011;23564;48.290;11.460;2022-07-10T12:57:47;7.18;;;1.20;;
36321;SDS011;23564;48.290;11.460;2022-07-10T13:00:24;2.22;;;0.73;;
36321;SDS011;23564;48.290;11.460;2022-07-10T13:05:30;3.47;;;0.77;;
36321;SDS011;23564;48.290;11.460;2022-07-10T13:08:06;1.73;;;0.68;;
36321;SDS011;23564;48.290;11.460;2022-07-10T13:10:37;6.82;;;1.42;;
36321;SDS011;23564;48.290;11.460;2022-07-10T13:13:04;5.07;;;0.80;;
36321;SDS011;23564;48.290;11.460;2022-07-10T13:15:30;3.13;;;0.70;;
36321;SDS011;23564;48.290;11.460;2022-07-10T13:17:56;2.58;;;0.90;;
36321;SDS011;23564;48.290;11.460;2022-07-10T13:20:22;1.25;;;0.55;;
36321;SDS011;23564;48.290;11.460;2022-07-10T13:22:48;4.60;;;0.73;;
36321;SDS011;23564;48.290;11.460;2022-07-10T13:25:14;1.75;;;0.68;;
36321;SDS011;23564;48.290;11.460;2022-07-10T13:27:39;1.42;;;0.70;;
36321;SDS011;23564;48.290;11.460;2022-07-10T13:30:07;4.45;;;0.57;;
36321;SDS011;23564;48.290;11.460;2022-07-10T13:32:32;3.83;;;0.80;;
36321;SDS011;23564;48.290;11.460;2022-07-10T13:34:59;3.20;;;0.65;;
36321;SDS011;23564;48.290;11.460;2022-07-10T13:37:24;2.78;;;0.77;;
36321;SDS011;23564;48.290;11.460;2022-07-10T13:39:50;2.35;;;0.80;;
36321;SDS011;23564;48.290;11.460;2022-07-10T13:42:16;1.58;;;0.63;;
36321;SDS011;23564;48.290;11.460;2022-07-10T13:44:41;1.60;;;0.32;;
36321;SDS011;23564;48.290;11.460;2022-07-10T13:47:07;2.45;;;0.57;;
36321;SDS011;23564;48.290;11.460;2022-07-10T13:49:33;3.42;;;0.70;;
36321;SDS011;23564;48.290;11.460;2022-07-10T13:51:59;2.90;;;0.80;;
36321;SDS011;23564;48.290;11.460;2022-07-10T13:54:24;2.00;;;0.60;;
36321;SDS011;23564;48.290;11.460;2022-07-10T13:56:50;4.28;;;0.93;;
36321;SDS011;23564;48.290;11.460;2022-07-10T13:59:16;3.03;;;0.90;;
36321;SDS011;23564;48.290;11.460;2022-07-10T14:01:41;3.15;;;0.73;;
36321;SDS011;23564;48.290;11.460;2022-07-10T14:04:07;5.65;;;0.90;;
36321;SDS011;23564;48.290;11.460;2022-07-10T14:06:33;1.75;;;0.70;;
36321;SDS011;23564;48.290;11.460;2022-07-10T14:08:58;4.05;;;0.90;;
36321;SDS011;23564;48.290;11.460;2022-07-10T14:11:24;1.63;;;0.52;;
36321;SDS011;23564;48.290;11.460;2022-07-10T14:13:50;1.38;;;0.50;;
36321;SDS011;23564;48.290;11.460;2022-07-10T14:16:15;2.08;;;0.60;;
36321;SDS011;23564;48.290;11.460;2022-07-10T14:18:41;2.67;;;0.60;;
36321;SDS011;23564;48.290;11.460;2022-07-10T14:21:09;3.33;;;0.75;;
36321;SDS011;23564;48.290;11.460;2022-07-10T14:23:37;3.95;;;0.50;;
36321;SDS011;23564;48.290;11.460;2022-07-10T14:26:06;2.95;;;0.68;;
36321;SDS011;23564;48.290;11.460;2022-07-10T14:28:33;1.65;;;0.50;;
36321;SDS011;23564;48.290;11.460;2022-07-10T14:31:00;0.80;;;0.30;;
36321;SDS011;23564;48.290;11.460;2022-07-10T14:33:28;2.13;;;0.50;;
36321;SDS011;23564;48.290;11.460;2022-07-10T14:35:55;4.35;;;0.90;;
36321;SDS011;23564;48.290;11.460;2022-07-10T14:38:20;2.90;;;1.08;;
36321;SDS011;23564;48.290;11.460;2022-07-10T14:40:46;2.40;;;0.60;;
36321;SDS011;23564;48.290;11.460;2022-07-10T14:43:12;5.32;;;0.90;;
36321;SDS011;23564;48.290;11.460;2022-07-10T14:45:37;2.80;;;0.82;;
36321;SDS011;23564;48.290;11.460;2022-07-10T14:48:03;2.60;;;0.68;;
36321;SDS011;23564;48.290;11.460;2022-07-10T14:50:29;3.42;;;0.40;;
36321;SDS011;23564;48.290;11.460;2022-07-10T14:52:54;0.77;;;0.50;;
36321;SDS011;23564;48.290;11.460;2022-07-10T14:55:20;2.17;;;0.47;;
36321;SDS011;23564;48.290;11.460;2022-07-10T14:57:46;3.97;;;0.55;;
36321;SDS011;23564;48.290;11.460;2022-07-10T15:00:13;3.00;;;0.50;;
36321;SDS011;23564;48.290;11.460;2022-07-10T15:02:39;3.53;;;0.77;;
36321;SDS011;23564;48.290;11.460;2022-07-10T15:05:05;1.23;;;0.30;;
36321;SDS011;23564;48.290;11.460;2022-07-10T15:07:31;2.05;;;0.82;;
36321;SDS011;23564;48.290;11.460;2022-07-10T15:09:56;2.40;;;0.60;;
36321;SDS011;23564;48.290;11.460;2022-07-10T15:12:22;1.15;;;0.50;;
36321;SDS011;23564;48.290;11.460;2022-07-10T15:14:48;1.33;;;0.50;;
36321;SDS011;23564;48.290;11.460;2022-07-10T15:17:13;2.15;;;0.57;;